This is the latest recevied weather packets stored in our database for station/object KC3AWA. If no packets are shown the sender has not sent any weather packets the latest 10 day(s).
| Time | Temp. | Humidity | Pressure | Rain* | Wind** | Luminosity | Snow |
|---|---|---|---|---|---|---|---|
| 1778001525 | 21.11° C | 53% | 1008.3 hPa | 0 mm | - | 267 W/m² | - |
| 1778001222 | 21.11° C | 53% | 1008.3 hPa | 0 mm | - | 339 W/m² | - |
| 1778000919 | 21.67° C | 53% | 1008.5 hPa | 0 mm | - | 411 W/m² | - |
| 1778000616 | 21.11° C | 53% | 1008.4 hPa | 0 mm | - | 366 W/m² | - |
| 1778000311 | 21.67° C | 53% | 1008.2 hPa | 0 mm | - | 330 W/m² | - |
| 1778000007 | 21.11° C | 55% | 1008.4 hPa | 0 mm | - | 418 W/m² | - |
| 1777999702 | 21.67° C | 52% | 1008.2 hPa | 0 mm | - | 490 W/m² | - |
| 1777999400 | 20.56° C | 56% | 1008.2 hPa | 0 mm | - | 884 W/m² | - |
| 1777999098 | 20.56° C | 57% | 1008.2 hPa | 0 mm | - | 392 W/m² | - |
| 1777998796 | 20° C | 56% | 1008.4 hPa | 0 mm | - | 936 W/m² | - |
| 1777998494 | 19.44° C | 59% | 1008.1 hPa | 0 mm | - | 314 W/m² | - |
| 1777998190 | 19.44° C | 59% | 1008.6 hPa | 0 mm | - | 259 W/m² | - |
| 1777997887 | 19.44° C | 59% | 1008.5 hPa | 0 mm | - | 361 W/m² | - |
| 1777997585 | 20.56° C | 56% | 1008.6 hPa | 0 mm | - | 368 W/m² | - |
| 1777997282 | 20° C | 57% | 1008.6 hPa | 0 mm | - | 617 W/m² | - |
| 1777996980 | 20° C | 58% | 1008.9 hPa | 0 mm | - | 377 W/m² | - |
| 1777996676 | 20° C | 57% | 1008.9 hPa | 0 mm | - | 429 W/m² | - |
| 1777996371 | 19.44° C | 59% | 1008.8 hPa | 0 mm | - | 566 W/m² | - |
| 1777996068 | 19.44° C | 58% | 1009 hPa | 0 mm | - | 329 W/m² | - |
| 1777995765 | 20° C | 60% | 1009.1 hPa | 0 mm | - | 370 W/m² | - |
| 1777995461 | 19.44° C | 61% | 1009 hPa | 0 mm | - | 908 W/m² | - |
| 1777995158 | 20° C | 59% | 1008.8 hPa | 0 mm | - | 294 W/m² | - |
| 1777994856 | 20° C | 57% | 1008.6 hPa | 0 mm | - | 332 W/m² | - |
| 1777994552 | 20° C | 58% | 1008.5 hPa | 0 mm | - | 664 W/m² | - |
| 1777994246 | 20° C | 59% | 1008.3 hPa | 0 mm | - | 810 W/m² | - |
* Rain latest hour (hover to see other rain measurements)
** Current wind speed in m/s (hover to see current wind gust speed)